createdAt,value
2018-01-05T00:00:35.899Z,12.53
2018-01-05T00:01:36.382Z,12.52
2018-01-05T00:02:36.857Z,12.53
2018-01-05T00:03:37.386Z,12.53
2018-01-05T00:04:37.793Z,12.53
2018-01-05T00:05:38.275Z,12.54
2018-01-05T00:08:39.691Z,12.54
2018-01-05T00:09:40.162Z,12.54
2018-01-05T00:10:40.635Z,12.55
2018-01-05T00:11:41.095Z,12.54
2018-01-05T00:12:41.582Z,12.54
2018-01-05T00:13:42.060Z,12.55
2018-01-05T00:14:42.527Z,12.55
2018-01-05T00:16:43.473Z,12.57
2018-01-05T00:17:43.944Z,12.56
2018-01-05T00:18:44.416Z,12.57
2018-01-05T00:19:44.890Z,12.58
2018-01-05T00:20:45.362Z,12.58
2018-01-05T00:21:45.834Z,12.58
2018-01-05T00:22:46.295Z,12.59
2018-01-05T00:23:46.781Z,12.61
2018-01-05T00:24:47.252Z,12.62
2018-01-05T00:25:47.775Z,12.62
2018-01-05T00:26:48.196Z,12.63
2018-01-05T00:27:48.669Z,12.64
2018-01-05T00:28:49.142Z,12.65
2018-01-05T00:29:49.611Z,12.65
2018-01-05T00:30:50.087Z,12.65
2018-01-05T00:31:50.561Z,12.65
2018-01-05T00:33:51.493Z,12.65
2018-01-05T00:34:51.978Z,12.64
2018-01-05T00:35:52.505Z,12.64
2018-01-05T00:36:52.923Z,12.65
2018-01-05T00:37:53.395Z,12.65
2018-01-05T00:40:54.803Z,12.63
2018-01-05T00:43:56.231Z,12.63
2018-01-05T00:44:56.693Z,12.63
2018-01-05T00:45:57.228Z,12.61
2018-01-05T00:46:57.650Z,12.61
2018-01-05T00:47:58.131Z,12.61
2018-01-05T00:48:58.595Z,12.62
2018-01-05T00:49:59.069Z,12.62
2018-01-05T00:50:59.540Z,12.62
2018-01-05T00:52:00.000Z,12.62
2018-01-05T00:53:00.486Z,12.62
2018-01-05T00:55:01.431Z,12.63
2018-01-05T00:56:01.890Z,12.62
2018-01-05T01:00:03.794Z,12.61
2018-01-05T01:01:04.268Z,12.60
2018-01-05T01:02:04.741Z,12.59
2018-01-05T01:03:05.199Z,12.60
2018-01-05T01:04:05.686Z,12.60
2018-01-05T01:05:06.158Z,12.61
2018-01-05T01:06:06.631Z,12.60
2018-01-05T01:07:07.104Z,12.60
2018-01-05T01:08:07.599Z,12.61
2018-01-05T01:09:08.048Z,12.61
2018-01-05T01:10:08.522Z,12.62
2018-01-05T01:11:09.043Z,12.62
2018-01-05T01:12:09.465Z,12.62
2018-01-05T01:14:10.402Z,12.64
2018-01-05T01:15:10.884Z,12.64
2018-01-05T01:16:11.356Z,12.64
2018-01-05T01:17:11.832Z,12.65
2018-01-05T01:18:12.301Z,12.65
2018-01-05T01:19:12.777Z,12.65
2018-01-05T01:20:13.246Z,12.66
2018-01-05T01:21:13.708Z,12.64
2018-01-05T01:22:14.191Z,12.64
2018-01-05T01:23:14.664Z,12.63
2018-01-05T01:24:15.143Z,12.62
2018-01-05T01:25:15.598Z,12.61
2018-01-05T01:26:16.133Z,12.61
2018-01-05T01:27:16.555Z,12.61
2018-01-05T01:29:17.501Z,12.63
2018-01-05T01:30:17.972Z,12.62
2018-01-05T01:31:18.447Z,12.63
2018-01-05T01:32:18.906Z,12.62
2018-01-05T01:33:19.394Z,12.63
2018-01-05T01:34:19.862Z,12.63
2018-01-05T01:35:20.340Z,12.64
2018-01-05T01:36:20.797Z,12.63
2018-01-05T01:37:21.283Z,12.63
2018-01-05T01:38:21.755Z,12.63
2018-01-05T01:39:22.227Z,12.64
2018-01-05T01:40:22.701Z,12.63
2018-01-05T01:41:23.223Z,12.62
2018-01-05T01:42:23.644Z,12.62
2018-01-05T01:43:24.105Z,12.63
2018-01-05T01:45:25.063Z,12.63
2018-01-05T01:47:26.008Z,12.62
2018-01-05T01:48:26.481Z,12.63
2018-01-05T01:49:26.953Z,12.62
2018-01-05T01:50:27.427Z,12.62
2018-01-05T01:51:27.897Z,12.64
2018-01-05T01:52:28.370Z,12.64
2018-01-05T01:53:28.848Z,12.65
2018-01-05T01:54:29.303Z,12.64
2018-01-05T01:55:29.791Z,12.64
2018-01-05T01:57:30.786Z,12.65
2018-01-05T01:58:31.206Z,12.67
2018-01-05T02:00:32.153Z,12.67
2018-01-05T02:01:32.619Z,12.68
2018-01-05T02:03:33.623Z,12.69
2018-01-05T02:04:34.046Z,12.69
2018-01-05T02:05:34.503Z,12.67
2018-01-05T02:06:34.988Z,12.66
2018-01-05T02:07:35.462Z,12.65
2018-01-05T02:08:47.825Z,12.65
2018-01-05T02:09:36.408Z,12.67
2018-01-05T02:10:36.878Z,12.66
2018-01-05T02:11:37.351Z,12.67
2018-01-05T02:12:37.811Z,12.67
2018-01-05T02:13:38.299Z,12.66
2018-01-05T02:14:38.768Z,12.66
2018-01-05T02:15:39.243Z,12.67
2018-01-05T02:16:39.702Z,12.67
2018-01-05T02:17:40.188Z,12.67
2018-01-05T02:19:41.134Z,12.69
2018-01-05T02:20:41.606Z,12.68
2018-01-05T02:21:42.079Z,12.67
2018-01-05T02:22:42.553Z,12.66
2018-01-05T02:23:43.011Z,12.66
2018-01-05T02:24:43.496Z,12.64
2018-01-05T02:25:43.971Z,12.65
2018-01-05T02:26:44.442Z,12.65
2018-01-05T02:27:44.901Z,12.65
2018-01-05T02:28:45.386Z,12.65
2018-01-05T02:29:45.860Z,12.65
2018-01-05T02:31:46.808Z,12.65
2018-01-05T02:32:47.278Z,12.65
2018-01-05T02:33:47.752Z,12.65
2018-01-05T02:34:48.211Z,12.65
2018-01-05T02:35:48.698Z,12.65
2018-01-05T02:36:49.169Z,12.65
2018-01-05T02:38:50.163Z,12.64
2018-01-05T02:39:50.588Z,12.64
2018-01-05T02:40:51.065Z,12.64
2018-01-05T02:41:51.532Z,12.63
2018-01-05T02:42:52.004Z,12.63
2018-01-05T02:44:52.950Z,12.62
2018-01-05T02:45:53.413Z,12.64
2018-01-05T02:46:53.895Z,12.63
2018-01-05T02:47:54.368Z,12.63
2018-01-05T02:49:55.317Z,12.63
2018-01-05T02:50:55.785Z,12.63
2018-01-05T02:51:56.257Z,12.63
2018-01-05T02:52:56.722Z,12.63
2018-01-05T02:53:57.210Z,12.63
2018-01-05T02:54:57.677Z,12.63
2018-01-05T02:55:58.150Z,12.63
2018-01-05T02:56:58.609Z,12.64
2018-01-05T02:57:59.095Z,12.65
2018-01-05T02:58:59.827Z,12.66
2018-01-05T03:00:00.041Z,12.65
2018-01-05T03:01:00.507Z,12.64
2018-01-05T03:02:00.977Z,12.64
2018-01-05T03:04:01.922Z,12.65
2018-01-05T03:05:02.391Z,12.65
2018-01-05T03:06:02.869Z,12.65
2018-01-05T03:07:03.340Z,12.65
2018-01-05T03:08:03.814Z,12.65
2018-01-05T03:09:04.285Z,12.65
2018-01-05T03:10:04.760Z,12.65
2018-01-05T03:11:05.229Z,12.66
2018-01-05T03:12:05.703Z,12.65
2018-01-05T03:13:06.177Z,12.64
2018-01-05T03:14:06.649Z,12.63
2018-01-05T03:15:07.121Z,12.63
2018-01-05T03:16:07.593Z,12.62
2018-01-05T03:17:08.065Z,12.60
2018-01-05T03:18:08.539Z,12.60
2018-01-05T03:19:09.012Z,12.60
2018-01-05T03:20:09.486Z,12.61
2018-01-05T03:21:09.954Z,12.60
2018-01-05T03:22:10.431Z,12.60
2018-01-05T03:23:10.903Z,12.61
2018-01-05T03:24:11.374Z,12.61
2018-01-05T03:25:11.848Z,12.61
2018-01-05T03:26:12.323Z,12.61
2018-01-05T03:27:12.792Z,12.60
2018-01-05T03:28:13.265Z,12.61
2018-01-05T03:29:13.738Z,12.61
2018-01-05T03:30:14.213Z,12.61
2018-01-05T03:31:14.684Z,12.62
2018-01-05T03:32:15.155Z,12.62
2018-01-05T03:33:15.630Z,12.62
2018-01-05T03:34:16.101Z,12.62
2018-01-05T03:35:16.573Z,12.62
2018-01-05T03:36:17.042Z,12.62
2018-01-05T03:37:17.522Z,12.62
2018-01-05T03:38:17.993Z,12.61
2018-01-05T03:39:18.467Z,12.61
2018-01-05T03:40:18.938Z,12.61
2018-01-05T03:41:19.409Z,12.62
2018-01-05T03:42:19.883Z,12.61
2018-01-05T03:43:20.354Z,12.63
2018-01-05T03:44:32.920Z,12.63
2018-01-05T03:45:21.303Z,12.63
2018-01-05T03:46:21.773Z,12.62
2018-01-05T03:47:22.252Z,12.63
2018-01-05T03:48:22.718Z,12.62
2018-01-05T03:49:23.190Z,12.61
2018-01-05T03:50:23.663Z,12.61
2018-01-05T03:51:24.138Z,12.61
2018-01-05T03:52:24.605Z,12.61
2018-01-05T03:53:25.082Z,12.60
2018-01-05T03:54:25.553Z,12.61
2018-01-05T03:55:26.027Z,12.61
2018-01-05T03:56:26.499Z,12.62
2018-01-05T03:57:26.974Z,12.61
2018-01-05T03:58:27.440Z,12.63
2018-01-05T03:59:27.916Z,12.60
2018-01-05T04:00:28.391Z,12.61
2018-01-05T04:01:28.863Z,12.61
2018-01-05T04:03:29.801Z,12.61
2018-01-05T04:05:30.753Z,12.61
2018-01-05T04:06:31.224Z,12.62
2018-01-05T04:07:31.696Z,12.60
2018-01-05T04:08:32.172Z,12.61
2018-01-05T04:09:32.645Z,12.60
2018-01-05T04:11:33.590Z,12.60
2018-01-05T04:12:34.061Z,12.60
2018-01-05T04:13:34.534Z,12.60
2018-01-05T04:14:35.008Z,12.61
2018-01-05T04:15:35.480Z,12.62
2018-01-05T04:16:35.951Z,12.61
2018-01-05T04:17:36.425Z,12.61
2018-01-05T04:18:36.892Z,12.61
2018-01-05T04:19:48.904Z,12.61
2018-01-05T04:20:37.845Z,12.61
2018-01-05T04:21:38.317Z,12.62
2018-01-05T04:22:38.783Z,12.63
2018-01-05T04:23:39.260Z,12.62
2018-01-05T04:24:39.734Z,12.62
2018-01-05T04:25:40.205Z,12.61
2018-01-05T04:26:40.678Z,12.60
2018-01-05T04:27:41.150Z,12.62
2018-01-05T04:28:41.623Z,12.63
2018-01-05T04:29:42.093Z,12.62
2018-01-05T04:30:42.568Z,12.62
2018-01-05T04:31:43.036Z,12.62
2018-01-05T04:32:43.515Z,12.61
2018-01-05T04:34:44.461Z,12.60
2018-01-05T04:35:44.927Z,12.60
2018-01-05T04:36:45.404Z,12.60
2018-01-05T04:37:45.878Z,12.61
2018-01-05T04:38:46.352Z,12.62
2018-01-05T04:39:46.821Z,12.61
2018-01-05T04:40:47.291Z,12.61
2018-01-05T04:41:47.768Z,12.61
2018-01-05T04:42:48.240Z,12.61
2018-01-05T04:43:48.712Z,12.59
2018-01-05T04:44:49.186Z,12.59
2018-01-05T04:45:49.658Z,12.58
2018-01-05T04:46:50.132Z,12.60
2018-01-05T04:47:50.601Z,12.58
2018-01-05T04:48:51.076Z,12.57
2018-01-05T04:49:51.551Z,12.56
2018-01-05T04:50:52.022Z,12.57
2018-01-05T04:51:52.495Z,12.57
2018-01-05T04:52:52.961Z,12.56
2018-01-05T04:53:53.440Z,12.55
2018-01-05T04:54:53.912Z,12.56
2018-01-05T04:57:55.329Z,12.55
2018-01-05T04:58:55.801Z,12.54
2018-01-05T05:00:56.746Z,12.52
2018-01-05T05:01:57.220Z,12.52
2018-01-05T05:02:57.694Z,12.52
2018-01-05T05:03:58.159Z,12.52
2018-01-05T05:04:58.636Z,12.52
2018-01-05T05:05:59.109Z,12.52
2018-01-05T05:06:59.582Z,12.52
2018-01-05T05:08:00.050Z,12.53
2018-01-05T05:10:01.000Z,12.52
2018-01-05T05:11:01.472Z,12.52
2018-01-05T05:12:01.945Z,12.51
2018-01-05T05:13:02.417Z,12.52
2018-01-05T05:14:02.889Z,12.52
2018-01-05T05:15:03.364Z,12.52
2018-01-05T05:17:04.309Z,12.52
2018-01-05T05:18:04.779Z,12.52
2018-01-05T05:19:05.253Z,12.52
2018-01-05T05:20:05.719Z,12.52
2018-01-05T05:21:06.197Z,12.52
2018-01-05T05:22:06.671Z,12.52
2018-01-05T05:23:07.141Z,12.53
2018-01-05T05:24:07.614Z,12.54
2018-01-05T05:25:08.086Z,12.53
2018-01-05T05:26:08.557Z,12.54
2018-01-05T05:28:09.504Z,12.54
2018-01-05T05:29:09.976Z,12.55
2018-01-05T05:30:10.448Z,12.54
2018-01-05T05:31:10.922Z,12.54
2018-01-05T05:32:11.395Z,12.54
2018-01-05T05:33:11.867Z,12.54
2018-01-05T05:34:12.340Z,12.55
2018-01-05T05:36:13.284Z,12.55
2018-01-05T05:37:13.754Z,12.55
2018-01-05T05:38:14.229Z,12.56
2018-01-05T05:39:14.704Z,12.56
2018-01-05T05:40:15.175Z,12.56
2018-01-05T05:41:15.647Z,12.56
2018-01-05T05:42:16.121Z,12.56
2018-01-05T05:43:16.594Z,12.57
2018-01-05T05:44:17.065Z,12.57
2018-01-05T05:45:17.538Z,12.57
2018-01-05T05:46:18.010Z,12.58
2018-01-05T05:47:18.484Z,12.57
2018-01-05T05:48:18.952Z,12.57
2018-01-05T05:49:19.431Z,12.56
2018-01-05T05:51:20.373Z,12.56
2018-01-05T05:52:20.848Z,12.57
2018-01-05T05:53:21.319Z,12.57
2018-01-05T05:54:21.792Z,12.57
2018-01-05T05:55:22.263Z,12.57
2018-01-05T05:57:23.205Z,12.55
2018-01-05T05:58:23.681Z,12.54
2018-01-05T05:59:24.155Z,12.55
2018-01-05T06:00:24.626Z,12.54
2018-01-05T06:02:25.571Z,12.57
2018-01-05T06:03:26.045Z,12.55
2018-01-05T06:04:26.518Z,12.54
2018-01-05T06:05:26.992Z,12.54
2018-01-05T06:06:27.461Z,12.55
2018-01-05T06:07:27.935Z,12.56
2018-01-05T06:08:28.411Z,12.57
2018-01-05T06:09:28.879Z,12.57
2018-01-05T06:10:29.352Z,12.55
2018-01-05T06:11:29.827Z,12.55
2018-01-05T06:12:30.298Z,12.55
2018-01-05T06:13:30.766Z,12.55
2018-01-05T06:14:31.244Z,12.55
2018-01-05T06:15:31.717Z,12.53
2018-01-05T06:16:32.188Z,12.53
2018-01-05T06:17:32.659Z,12.52
2018-01-05T06:18:33.134Z,12.51
2018-01-05T06:19:33.605Z,12.52
2018-01-05T06:20:34.079Z,12.50
2018-01-05T06:21:34.552Z,12.49
2018-01-05T06:22:35.024Z,12.48
2018-01-05T06:23:35.492Z,12.49
2018-01-05T06:24:35.963Z,12.48
2018-01-05T06:25:36.442Z,12.49
2018-01-05T06:26:36.914Z,12.48
2018-01-05T06:27:37.387Z,12.47
2018-01-05T06:28:37.853Z,12.46
2018-01-05T06:29:38.331Z,12.46
2018-01-05T06:31:39.276Z,12.44
2018-01-05T06:32:39.744Z,12.44
2018-01-05T06:33:40.221Z,12.46
2018-01-05T06:35:41.168Z,12.45
2018-01-05T06:36:41.642Z,12.46
2018-01-05T06:37:42.113Z,12.45
2018-01-05T06:38:42.585Z,12.45
2018-01-05T06:39:43.052Z,12.44
2018-01-05T06:40:43.530Z,12.45
2018-01-05T06:41:44.004Z,12.45
2018-01-05T06:43:44.948Z,12.46
2018-01-05T06:44:45.418Z,12.46
2018-01-05T06:45:45.891Z,12.47
2018-01-05T06:46:46.360Z,12.48
2018-01-05T06:47:46.836Z,12.48
2018-01-05T06:48:47.308Z,12.47
2018-01-05T06:49:47.784Z,12.47
2018-01-05T06:50:48.250Z,12.48
2018-01-05T06:51:48.730Z,12.47
2018-01-05T06:53:49.673Z,12.47
2018-01-05T06:54:50.144Z,12.47
2018-01-05T06:55:50.617Z,12.47
2018-01-05T06:56:51.089Z,12.48
2018-01-05T06:57:51.558Z,12.48
2018-01-05T06:58:52.038Z,12.48
2018-01-05T06:59:52.507Z,12.49
2018-01-05T07:00:52.979Z,12.48
2018-01-05T07:01:53.453Z,12.48
2018-01-05T07:02:53.925Z,12.49
2018-01-05T07:03:54.396Z,12.49
2018-01-05T07:04:54.874Z,12.49
2018-01-05T07:06:55.815Z,12.49
2018-01-05T07:07:56.294Z,12.50
2018-01-05T07:08:56.755Z,12.51
2018-01-05T07:09:57.233Z,12.50
2018-01-05T07:10:57.707Z,12.50
2018-01-05T07:12:10.070Z,12.53
2018-01-05T07:12:58.649Z,12.52
2018-01-05T07:13:59.126Z,12.51
2018-01-05T07:14:59.596Z,12.53
2018-01-05T07:16:00.070Z,12.53
2018-01-05T07:17:00.543Z,12.52
2018-01-05T07:18:01.012Z,12.51
2018-01-05T07:19:01.488Z,12.51
2018-01-05T07:20:01.954Z,12.51
2018-01-05T07:21:02.430Z,12.51
2018-01-05T07:22:02.903Z,12.51
2018-01-05T07:23:03.376Z,12.50
2018-01-05T07:24:03.848Z,12.50
2018-01-05T07:25:04.321Z,12.50
2018-01-05T07:27:05.266Z,12.53
2018-01-05T07:28:05.769Z,12.53
2018-01-05T07:29:06.211Z,12.54
2018-01-05T07:31:07.158Z,12.56
2018-01-05T07:32:07.631Z,12.57
2018-01-05T07:33:08.101Z,12.59
2018-01-05T07:34:08.569Z,12.60
2018-01-05T07:36:09.522Z,12.62
2018-01-05T07:37:09.993Z,12.64
2018-01-05T07:38:10.460Z,12.66
2018-01-05T07:39:10.938Z,12.68
2018-01-05T07:40:11.411Z,12.72
2018-01-05T07:41:11.885Z,12.75
2018-01-05T07:42:12.357Z,12.76
2018-01-05T07:43:12.829Z,12.79
2018-01-05T07:44:13.298Z,12.82
2018-01-05T07:45:13.774Z,12.84
2018-01-05T07:46:14.248Z,12.85
2018-01-05T07:47:14.720Z,12.88
2018-01-05T07:48:15.194Z,12.90
2018-01-05T07:49:15.666Z,12.93
2018-01-05T07:50:16.170Z,12.95
2018-01-05T07:51:16.613Z,12.96
2018-01-05T07:52:17.087Z,12.97
2018-01-05T07:53:17.562Z,12.97
2018-01-05T07:54:18.027Z,13.01
2018-01-05T07:55:18.506Z,13.02
2018-01-05T07:56:18.979Z,13.03
2018-01-05T07:57:19.452Z,13.05
2018-01-05T07:58:19.924Z,13.06
2018-01-05T07:59:20.394Z,13.06
2018-01-05T08:00:20.873Z,13.06
2018-01-05T08:01:21.348Z,13.07
2018-01-05T08:04:22.770Z,13.10
2018-01-05T08:05:23.235Z,13.12
2018-01-05T08:07:24.182Z,13.14
2018-01-05T08:08:24.656Z,13.16
2018-01-05T08:10:25.597Z,13.21
2018-01-05T08:11:26.075Z,13.22
2018-01-05T08:12:26.544Z,13.22
2018-01-05T08:13:27.021Z,13.25
2018-01-05T08:14:27.494Z,13.26
2018-01-05T08:15:27.970Z,13.28
2018-01-05T08:16:28.443Z,13.28
2018-01-05T08:17:28.914Z,13.30
2018-01-05T08:18:29.392Z,13.31
2018-01-05T08:19:29.858Z,13.31
2018-01-05T08:20:30.336Z,13.33
2018-01-05T08:21:30.809Z,13.35
2018-01-05T08:22:31.283Z,13.37
2018-01-05T08:23:31.756Z,13.39
2018-01-05T08:24:32.231Z,13.41
2018-01-05T08:25:32.703Z,13.44
2018-01-05T08:26:33.177Z,13.47
2018-01-05T08:27:33.651Z,13.47
2018-01-05T08:28:34.176Z,13.49
2018-01-05T08:29:34.597Z,13.50
2018-01-05T08:30:35.072Z,13.52
2018-01-05T08:31:35.543Z,13.55
2018-01-05T08:32:36.022Z,13.57
2018-01-05T08:33:36.493Z,13.60
2018-01-05T08:34:36.968Z,13.63
2018-01-05T08:35:37.437Z,13.66
2018-01-05T08:36:37.914Z,13.68
2018-01-05T08:37:38.388Z,13.70
2018-01-05T08:38:38.861Z,13.73
2018-01-05T08:39:39.336Z,13.76
2018-01-05T08:40:39.809Z,13.77
2018-01-05T08:41:40.285Z,13.80
2018-01-05T08:42:40.751Z,13.81
2018-01-05T08:43:41.230Z,13.83
2018-01-05T08:44:41.701Z,13.85
2018-01-05T08:45:42.177Z,13.89
2018-01-05T08:46:42.654Z,13.91
2018-01-05T08:47:43.129Z,13.94
2018-01-05T08:48:43.601Z,13.95
2018-01-05T08:49:44.075Z,13.97
2018-01-05T08:50:44.550Z,14.01
2018-01-05T08:51:45.020Z,14.03
2018-01-05T08:52:45.500Z,14.05
2018-01-05T08:53:45.978Z,14.06
2018-01-05T08:54:46.448Z,14.09
2018-01-05T08:56:47.396Z,14.12
2018-01-05T08:57:47.868Z,14.13
2018-01-05T08:58:48.344Z,14.15
2018-01-05T08:59:48.818Z,14.17
2018-01-05T09:01:49.770Z,14.19
2018-01-05T09:02:50.241Z,14.20
2018-01-05T09:03:50.768Z,14.22
2018-01-05T09:04:51.190Z,14.24
2018-01-05T09:05:51.666Z,14.26
2018-01-05T09:06:52.141Z,14.27
2018-01-05T09:07:52.615Z,14.28
2018-01-05T09:08:53.090Z,14.29
2018-01-05T09:09:53.567Z,14.28
2018-01-05T09:10:54.039Z,14.29
2018-01-05T09:11:54.514Z,14.31
2018-01-05T09:12:54.991Z,14.32
2018-01-05T09:13:55.458Z,14.34
2018-01-05T09:15:56.414Z,14.35
2018-01-05T09:16:56.896Z,14.35
2018-01-05T09:17:57.363Z,14.37
2018-01-05T09:18:57.838Z,14.39
2018-01-05T09:19:58.313Z,14.42
2018-01-05T09:20:58.790Z,14.44
2018-01-05T09:21:59.262Z,14.45
2018-01-05T09:22:59.741Z,14.46
2018-01-05T09:24:00.216Z,14.47
2018-01-05T09:25:00.688Z,14.48
2018-01-05T09:26:01.165Z,14.48
2018-01-05T09:27:01.638Z,14.50
2018-01-05T09:28:02.116Z,14.52
2018-01-05T09:30:03.064Z,14.53
2018-01-05T09:31:03.538Z,14.54
2018-01-05T09:32:04.015Z,14.56
2018-01-05T09:33:04.491Z,14.56
2018-01-05T09:34:04.960Z,14.58
2018-01-05T09:35:05.440Z,14.59
2018-01-05T09:36:05.915Z,14.59
2018-01-05T09:37:06.391Z,14.61
2018-01-05T09:38:06.863Z,14.63
2018-01-05T09:40:07.818Z,14.67
2018-01-05T09:41:08.294Z,14.67
2018-01-05T09:42:08.769Z,14.70
2018-01-05T09:43:09.243Z,14.72
2018-01-05T09:44:09.770Z,14.74
2018-01-05T09:45:10.194Z,14.75
2018-01-05T09:46:10.669Z,14.76
2018-01-05T09:47:11.146Z,14.77
2018-01-05T09:48:11.617Z,14.77
2018-01-05T09:49:12.097Z,14.77
2018-01-05T09:51:13.047Z,14.79
2018-01-05T09:52:13.522Z,14.80
2018-01-05T09:53:14.005Z,14.80
2018-01-05T09:54:14.476Z,14.80
2018-01-05T09:56:15.425Z,14.82
2018-01-05T09:58:16.373Z,14.84
2018-01-05T09:59:16.853Z,14.86
2018-01-05T10:01:17.804Z,14.88
2018-01-05T10:02:18.280Z,14.89
2018-01-05T10:03:18.756Z,14.90
2018-01-05T10:05:19.711Z,14.92
2018-01-05T10:06:20.178Z,14.93
2018-01-05T10:07:20.659Z,14.93
2018-01-05T10:08:21.135Z,14.94
2018-01-05T10:09:21.612Z,14.95
2018-01-05T10:10:22.092Z,14.96
2018-01-05T10:11:22.564Z,14.97
2018-01-05T10:12:23.041Z,14.98
2018-01-05T10:14:23.990Z,15.00
2018-01-05T10:15:24.461Z,15.00
2018-01-05T10:16:24.945Z,15.00
2018-01-05T10:17:25.420Z,15.01
2018-01-05T10:18:25.894Z,15.05
2018-01-05T10:19:26.372Z,15.04
2018-01-05T10:20:26.847Z,15.04
2018-01-05T10:21:27.324Z,15.04
2018-01-05T10:22:27.796Z,15.05
2018-01-05T10:23:28.276Z,15.05
2018-01-05T10:24:28.752Z,15.05
2018-01-05T10:25:29.229Z,15.05
2018-01-05T10:26:29.699Z,15.06
2018-01-05T10:27:30.180Z,15.06
2018-01-05T10:28:30.656Z,15.07
2018-01-05T10:29:31.138Z,15.08
2018-01-05T10:30:31.610Z,15.08
2018-01-05T10:31:32.084Z,15.08
2018-01-05T10:32:32.560Z,15.09
2018-01-05T10:33:33.035Z,15.10
2018-01-05T10:35:33.989Z,15.11
2018-01-05T10:36:34.465Z,15.11
2018-01-05T10:37:34.941Z,15.11
2018-01-05T10:38:35.419Z,15.12
2018-01-05T10:39:47.279Z,15.12
2018-01-05T10:41:36.846Z,15.13
2018-01-05T10:42:37.322Z,15.13
2018-01-05T10:43:37.799Z,15.14
2018-01-05T10:44:38.271Z,15.13
2018-01-05T10:45:38.752Z,15.14
2018-01-05T10:46:39.229Z,15.14
2018-01-05T10:47:39.703Z,15.15
2018-01-05T10:48:40.181Z,15.16
2018-01-05T10:49:40.657Z,15.17
2018-01-05T10:50:41.129Z,15.20
2018-01-05T10:51:41.609Z,15.21
2018-01-05T10:52:42.085Z,15.21
2018-01-05T10:54:43.033Z,15.20
2018-01-05T10:55:43.514Z,15.21
2018-01-05T10:56:43.990Z,15.21
2018-01-05T10:57:44.464Z,15.23
2018-01-05T10:58:44.942Z,15.23
2018-01-05T10:59:45.419Z,15.24
2018-01-05T11:00:45.896Z,15.24
2018-01-05T11:02:46.850Z,15.23
2018-01-05T11:03:47.320Z,15.24
2018-01-05T11:04:47.802Z,15.24
2018-01-05T11:05:48.279Z,15.26
2018-01-05T11:06:48.755Z,15.28
2018-01-05T11:07:49.231Z,15.30
2018-01-05T11:08:49.709Z,15.30
2018-01-05T11:10:50.658Z,15.30
2018-01-05T11:11:51.138Z,15.30
2018-01-05T11:12:51.614Z,15.31
2018-01-05T11:13:52.090Z,15.31
2018-01-05T11:14:52.562Z,15.33
2018-01-05T11:15:53.093Z,15.31
2018-01-05T11:16:53.520Z,15.30
2018-01-05T11:17:53.995Z,15.31
2018-01-05T11:18:54.471Z,15.31
2018-01-05T11:19:54.944Z,15.30
2018-01-05T11:20:55.425Z,15.31
2018-01-05T11:21:55.902Z,15.30
2018-01-05T11:22:56.378Z,15.29
2018-01-05T11:23:56.855Z,15.30
2018-01-05T11:24:57.331Z,15.29
2018-01-05T11:25:57.804Z,15.30
2018-01-05T11:26:58.284Z,15.30
2018-01-05T11:27:58.762Z,15.31
2018-01-05T11:29:59.714Z,15.31
2018-01-05T11:31:12.278Z,15.31
2018-01-05T11:33:01.142Z,15.32
2018-01-05T11:34:01.618Z,15.32
2018-01-05T11:35:02.094Z,15.31
2018-01-05T11:36:02.622Z,15.31
2018-01-05T11:37:03.044Z,15.31
2018-01-05T11:38:03.525Z,15.31
2018-01-05T11:39:04.002Z,15.29
2018-01-05T11:40:04.480Z,15.29
2018-01-05T11:42:05.441Z,15.29
2018-01-05T11:43:05.906Z,15.29
2018-01-05T11:44:06.380Z,15.30
2018-01-05T11:45:06.863Z,15.29
2018-01-05T11:46:07.336Z,15.29
2018-01-05T11:47:07.812Z,15.28
2018-01-05T11:48:08.289Z,15.28
2018-01-05T11:49:08.765Z,15.27
2018-01-05T11:50:09.241Z,15.28
2018-01-05T11:51:09.719Z,15.28
2018-01-05T11:52:10.195Z,15.28
2018-01-05T11:53:10.666Z,15.28
2018-01-05T11:54:11.148Z,15.27
2018-01-05T11:56:12.102Z,15.20
2018-01-05T11:57:12.576Z,15.16
2018-01-05T11:58:13.052Z,15.07
2018-01-05T11:59:13.528Z,14.97
2018-01-05T12:00:13.998Z,14.85
2018-01-05T12:02:15.008Z,14.58
2018-01-05T12:03:15.432Z,14.42
2018-01-05T12:04:15.903Z,14.26
2018-01-05T12:05:16.381Z,14.09
2018-01-05T12:06:16.857Z,13.91
2018-01-05T12:07:17.331Z,13.75
2018-01-05T12:08:17.808Z,13.57
2018-01-05T12:09:18.282Z,13.40
2018-01-05T12:10:18.757Z,13.24
2018-01-05T12:11:19.224Z,13.07
2018-01-05T12:12:19.703Z,12.91
2018-01-05T12:13:20.176Z,12.76
2018-01-05T12:15:21.122Z,12.52
2018-01-05T12:17:22.069Z,12.36
2018-01-05T12:18:22.540Z,12.30
2018-01-05T12:19:23.015Z,12.28
2018-01-05T12:20:23.485Z,12.26
2018-01-05T12:21:23.958Z,12.26
2018-01-05T12:23:24.952Z,12.29
2018-01-05T12:24:25.371Z,12.30
2018-01-05T12:25:25.846Z,12.34
2018-01-05T12:26:26.313Z,12.37
2018-01-05T12:27:26.790Z,12.41
2018-01-05T12:28:27.258Z,12.45
2018-01-05T12:29:27.726Z,12.50
2018-01-05T12:30:28.203Z,12.54
2018-01-05T12:31:28.673Z,12.58
2018-01-05T12:32:29.145Z,12.63
2018-01-05T12:33:29.618Z,12.68
2018-01-05T12:34:30.090Z,12.73
2018-01-05T12:35:30.561Z,12.80
2018-01-05T12:37:31.505Z,12.91
2018-01-05T12:38:32.028Z,12.97
2018-01-05T12:39:32.446Z,13.03
2018-01-05T12:40:32.920Z,13.09
2018-01-05T12:41:33.393Z,13.15
2018-01-05T12:42:33.864Z,13.22
2018-01-05T12:43:34.331Z,13.28
2018-01-05T12:44:34.809Z,13.36
2018-01-05T12:45:35.281Z,13.42
2018-01-05T12:47:36.225Z,13.53
2018-01-05T12:48:36.700Z,13.57
2018-01-05T12:49:37.171Z,13.62
2018-01-05T12:50:37.637Z,13.66
2018-01-05T12:51:38.114Z,13.70
2018-01-05T12:52:38.589Z,13.73
2018-01-05T12:53:39.061Z,13.78
2018-01-05T12:54:39.534Z,13.81
2018-01-05T12:55:40.012Z,13.84
2018-01-05T12:56:40.478Z,13.89
2018-01-05T12:57:40.954Z,13.93
2018-01-05T12:58:41.425Z,13.98
2018-01-05T12:59:41.897Z,14.02
2018-01-05T13:00:42.373Z,14.07
2018-01-05T13:01:42.840Z,14.11
2018-01-05T13:02:43.319Z,14.16
2018-01-05T13:03:43.792Z,14.19
2018-01-05T13:04:44.269Z,14.23
2018-01-05T13:05:44.739Z,14.26
2018-01-05T13:07:45.686Z,14.32
2018-01-05T13:08:46.157Z,14.33
2018-01-05T13:09:46.635Z,14.35
2018-01-05T13:10:47.109Z,14.37
2018-01-05T13:11:47.584Z,14.39
2018-01-05T13:12:48.056Z,14.41
2018-01-05T13:13:48.582Z,14.42
2018-01-05T13:14:49.005Z,14.44
2018-01-05T13:15:49.477Z,14.44
2018-01-05T13:17:50.427Z,14.47
2018-01-05T13:18:50.902Z,14.48
2018-01-05T13:19:51.373Z,14.49
2018-01-05T13:20:51.845Z,14.50
2018-01-05T13:22:52.799Z,14.52
2018-01-05T13:24:53.742Z,14.54
2018-01-05T13:25:54.222Z,14.54
2018-01-05T13:26:54.698Z,14.54
2018-01-05T13:27:55.170Z,14.55
2018-01-05T13:28:55.644Z,14.55
2018-01-05T13:29:56.120Z,14.56
2018-01-05T13:30:56.595Z,14.58
2018-01-05T13:31:57.067Z,14.58
2018-01-05T13:32:57.544Z,14.59
2018-01-05T13:34:58.492Z,14.60
2018-01-05T13:35:58.962Z,14.61
2018-01-05T13:36:59.444Z,14.62
2018-01-05T13:37:59.916Z,14.63
2018-01-05T13:40:00.861Z,14.64
2018-01-05T13:41:01.341Z,14.66
2018-01-05T13:42:01.815Z,14.67
2018-01-05T13:43:02.290Z,14.68
2018-01-05T13:44:02.767Z,14.69
2018-01-05T13:45:03.235Z,14.69
2018-01-05T13:46:03.715Z,14.70
2018-01-05T13:47:04.190Z,14.70
2018-01-05T13:48:04.665Z,14.71
2018-01-05T13:50:05.667Z,14.73
2018-01-05T13:51:06.090Z,14.75
2018-01-05T13:52:06.561Z,14.76
2018-01-05T13:53:07.040Z,14.77
2018-01-05T13:54:07.515Z,14.78
2018-01-05T13:55:07.991Z,14.77
2018-01-05T13:56:08.506Z,14.77
2018-01-05T13:57:08.939Z,14.77
2018-01-05T13:58:09.416Z,14.77
2018-01-05T13:59:09.891Z,14.77
2018-01-05T14:00:10.416Z,14.78
2018-01-05T14:01:10.839Z,14.78
2018-01-05T14:03:11.793Z,14.80
2018-01-05T14:04:12.266Z,14.79
2018-01-05T14:05:12.742Z,14.79
2018-01-05T14:06:13.218Z,14.80
2018-01-05T14:07:13.693Z,14.80
2018-01-05T14:08:14.194Z,14.79
2018-01-05T14:09:14.643Z,14.78
2018-01-05T14:10:15.114Z,14.78
2018-01-05T14:11:15.594Z,14.78
2018-01-05T14:12:16.069Z,14.78
2018-01-05T14:14:17.018Z,14.77
2018-01-05T14:15:17.489Z,14.77
2018-01-05T14:16:17.969Z,14.78
2018-01-05T14:17:18.446Z,14.79
2018-01-05T14:18:18.921Z,14.79
2018-01-05T14:20:19.923Z,14.78
2018-01-05T14:21:20.340Z,14.77
2018-01-05T14:22:20.860Z,14.76
2018-01-05T14:23:21.297Z,14.75
2018-01-05T14:24:21.771Z,14.75
2018-01-05T14:25:22.250Z,14.75
2018-01-05T14:26:22.726Z,14.74